Lightning — WDG5277 — position and weather

sailwx.info

Track history (hours):
 
Tides and Currents Weather Stations Pressure Air Temp Water Temp Dewpoint Dewpoint Depression Visibility Wind Speed Wind Dir Waves Ship Positions

Lightning

Owner: Harley Marine Services, Inc, Seattle, WA. More information available from US FCC via Universal Licensing System and Coast Guard Vessel Documentation Center.

Last reported at 2017-Oct-20 15:27 UTC. Time now 2017-Oct-20 16:22 UTC.
Position N 29°56' W 093°01'.

Length 18 m; draft 3.5 m.

Type: Towing. MMSI: 367544970.

Date/timePositionNaut miles runAvg speedWind from/ knotsBaromVisibWave heightAir tempDewpointWater temp
2017-Oct-20 15:27N 29°56' W 093°01'2 5.3
2017-Oct-20 15:00N 29°56' W 093°03'3 5.2
2017-Oct-20 14:30N 29°56' W 093°06'5 4.7
2017-Oct-20 13:30N 29°58' W 093°11'3 5.2
2017-Oct-20 13:00N 29°60' W 093°13'2 4.4
2017-Oct-20 12:30N 30°02' W 093°15'2 3.1
2017-Oct-20 12:00N 30°03' W 093°16'1 2.9
2017-Oct-20 11:30N 30°04' W 093°16'1 2.8
2017-Oct-20 11:00N 30°05' W 093°18'0 0.5
2017-Oct-20 10:30N 30°05' W 093°18'0 0.4
2017-Oct-20 10:00N 30°06' W 093°18'0 0.8
2017-Oct-20 09:30N 30°06' W 093°18'0 0.0
2017-Oct-20 09:00N 30°06' W 093°18'0 0.0
2017-Oct-20 08:30N 30°06' W 093°18'0 0.0
2017-Oct-20 08:00N 30°06' W 093°18'0 0.0
2017-Oct-20 07:30N 30°06' W 093°18'0 0.0
2017-Oct-20 07:00N 30°06' W 093°18'0 0.0
2017-Oct-20 06:30N 30°06' W 093°18'0 0.5
2017-Oct-20 06:00N 30°06' W 093°18'2 3.1
2017-Oct-20 05:30N 30°05' W 093°20'2 3.9
2017-Oct-20 05:00N 30°04' W 093°21'2 3.3
2017-Oct-20 04:30N 30°04' W 093°23'0 0.5
2017-Oct-20 04:00N 30°04' W 093°24'0 0.0
2017-Oct-20 03:30N 30°04' W 093°24'0 0.1
2017-Oct-20 03:00N 30°04' W 093°24'0 0.0
2017-Oct-20 02:30N 30°04' W 093°24'0 0.4
2017-Oct-20 02:00N 30°04' W 093°24'0 0.2
2017-Oct-20 01:30N 30°04' W 093°24'1 1.1
2017-Oct-20 01:00N 30°04' W 093°25'2 3.8
2017-Oct-20 00:30N 30°04' W 093°27'3 5.2
2017-Oct-20 00:00N 30°04' W 093°30'3 5.7
2017-Oct-19 23:30N 30°04' W 093°33'2 4.7
2017-Oct-19 23:00N 30°04' W 093°36'2 4.8
2017-Oct-19 22:30N 30°04' W 093°39'72 4.7
2017-Oct-19 07:06N 29°30' W 094°52'2 7.3
2017-Oct-19 06:52N 29°32' W 094°54'3 7.1
2017-Oct-19 06:30N 29°34' W 094°55'4 7.2
2017-Oct-19 06:00N 29°37' W 094°57'4 7.6
2017-Oct-19 05:30N 29°40' W 094°59'4 6.5
2017-Oct-19 04:52N 29°44' W 095°02'3 6.6
2017-Oct-19 04:25N 29°46' W 095°04'2 3.8
2017-Oct-19 03:58N 29°45' W 095°06'0 0.0
2017-Oct-19 03:30N 29°45' W 095°06'0 0.0
2017-Oct-19 03:00N 29°45' W 095°06'0 0.1
2017-Oct-19 02:28N 29°45' W 095°06'0 0.0
2017-Oct-18 12:57N 29°45' W 095°06'0 0.0
2017-Oct-18 12:30N 29°45' W 095°06'0 0.0
2017-Oct-18 12:00N 29°45' W 095°06'0 0.0
2017-Oct-18 11:30N 29°45' W 095°06'2 3.3
2017-Oct-18 10:59N 29°46' W 095°04'3 6.7
2017-Oct-18 10:30N 29°44' W 095°01'2 3.1
2017-Oct-18 10:00N 29°42' W 095°03'0 0.4
2017-Oct-18 09:24N 29°42' W 095°03'0 0.0
2017-Oct-18 08:59N 29°42' W 095°03'0 0.0
2017-Oct-18 08:30N 29°42' W 095°03'0 0.0
2017-Oct-18 08:00N 29°42' W 095°03'0 0.0
2017-Oct-18 07:30N 29°42' W 095°03'0 0.0
2017-Oct-18 06:55N 29°42' W 095°03'0 0.0
2017-Oct-18 06:25N 29°42' W 095°03'0 0.0
2017-Oct-18 06:00N 29°42' W 095°03'0 0.0
2017-Oct-18 05:29N 29°42' W 095°03'0 0.0
2017-Oct-18 04:57N 29°42' W 095°03'0 0.0
2017-Oct-18 04:23N 29°42' W 095°03'0 0.0
2017-Oct-18 04:00N 29°42' W 095°03'0 0.0
2017-Oct-18 02:40N 29°42' W 095°03'0 0.0
2017-Oct-18 02:29N 29°42' W 095°03'0 0.0
2017-Oct-18 01:55N 29°42' W 095°03'0 0.0
2017-Oct-18 01:21N 29°42' W 095°03'0 0.0
2017-Oct-18 00:59N 29°42' W 095°03'0 0.0
2017-Oct-18 00:24N 29°42' W 095°03'0 0.0
2017-Oct-17 23:51N 29°42' W 095°03'0 0.0
2017-Oct-17 23:25N 29°42' W 095°03'0 0.0
2017-Oct-17 23:00N 29°42' W 095°03'0 0.0
2017-Oct-17 22:27N 29°42' W 095°03'0 0.0
2017-Oct-17 21:56N 29°42' W 095°03'0 0.0
2017-Oct-17 21:27N 29°42' W 095°03'0 0.0
2017-Oct-17 20:59N 29°42' W 095°03'0 0.0
2017-Oct-17 20:30N 29°42' W 095°03'1 2.9
2017-Oct-17 20:00N 29°42' W 095°01'3 5.6
2017-Oct-17 19:30N 29°41' W 094°59'3 7.0
2017-Oct-17 19:00N 29°37' W 094°57'3 6.7
2017-Oct-17 18:30N 29°34' W 094°55'4 7.1
2017-Oct-17 18:00N 29°31' W 094°53'68 4.9
2017-Oct-17 04:18N 30°03' W 093°44'2 6.4
2017-Oct-17 03:56N 30°04' W 093°42'3 6.8
2017-Oct-17 03:29N 30°04' W 093°38'3 6.2
2017-Oct-17 03:00N 30°04' W 093°35'3 6.1
2017-Oct-17 02:30N 30°04' W 093°31'3 6.1
2017-Oct-17 02:00N 30°04' W 093°27'3 6.1
2017-Oct-17 01:30N 30°04' W 093°24'3 5.7
2017-Oct-17 01:00N 30°04' W 093°21'3 5.7
2017-Oct-17 00:30N 30°06' W 093°18'2 3.1
2017-Oct-17 00:00N 30°05' W 093°17'1 1.0
2017-Oct-16 23:30N 30°05' W 093°17'0 0.0
2017-Oct-16 23:00N 30°05' W 093°17'0 0.1
2017-Oct-16 22:30N 30°05' W 093°17'0 0.2
2017-Oct-16 22:00N 30°05' W 093°17'0 0.0
2017-Oct-16 21:30N 30°05' W 093°17'0 0.1
2017-Oct-16 21:00N 30°05' W 093°17'0 0.0
2017-Oct-16 20:30N 30°05' W 093°17'0 0.0
2017-Oct-16 20:00N 30°05' W 093°17'0 0.0
2017-Oct-16 19:30N 30°05' W 093°17'0 0.0
2017-Oct-16 19:00N 30°05' W 093°17'0 0.0
2017-Oct-16 18:30N 30°05' W 093°17'0 0.0
2017-Oct-16 18:00N 30°05' W 093°17'0 0.0
2017-Oct-16 17:30N 30°05' W 093°17'0 0.0
2017-Oct-16 17:00N 30°05' W 093°17'0 0.0
2017-Oct-16 16:30N 30°05' W 093°17'0 0.0
2017-Oct-16 16:00N 30°05' W 093°17'0 0.0
2017-Oct-16 15:30N 30°05' W 093°17'0 0.0
2017-Oct-16 15:00N 30°05' W 093°17'0 0.0
2017-Oct-16 14:30N 30°05' W 093°17'0 0.1
2017-Oct-16 13:30N 30°05' W 093°16'0 0.0
2017-Oct-16 13:00N 30°05' W 093°16'0 0.0
2017-Oct-16 12:30N 30°05' W 093°16'0 0.0
2017-Oct-16 12:00N 30°05' W 093°16'0 0.0
2017-Oct-16 11:30N 30°05' W 093°16'0 0.0
2017-Oct-16 11:00N 30°05' W 093°16'0 0.0
2017-Oct-16 10:30N 30°05' W 093°16'0 0.0
2017-Oct-16 10:00N 30°05' W 093°17'0 0.1
2017-Oct-16 09:30N 30°05' W 093°16'0 0.0
2017-Oct-16 09:00N 30°05' W 093°16'0 0.0
2017-Oct-16 08:30N 30°05' W 093°16'0 0.0
2017-Oct-16 08:00N 30°05' W 093°16'0 0.0
2017-Oct-16 07:30N 30°05' W 093°16'0 0.0
2017-Oct-16 07:00N 30°05' W 093°16'0 0.0
2017-Oct-16 06:30N 30°05' W 093°16'0 0.0
2017-Oct-16 06:00N 30°05' W 093°16'0 0.0
2017-Oct-16 05:30N 30°05' W 093°16'0 0.0
2017-Oct-16 05:00N 30°05' W 093°16'0 0.0
2017-Oct-16 04:30N 30°05' W 093°16'0 0.0
2017-Oct-16 04:00N 30°05' W 093°16'0 0.0
2017-Oct-16 03:31N 30°05' W 093°16'0 0.0
2017-Oct-16 03:00N 30°05' W 093°16'0 0.0
2017-Oct-16 02:30N 30°05' W 093°16'0 0.0
2017-Oct-16 02:00N 30°05' W 093°16'1 1.5
2017-Oct-16 01:30N 30°04' W 093°16'0 0.0
2017-Oct-16 01:00N 30°04' W 093°16'0 0.0
2017-Oct-16 00:30N 30°04' W 093°16'0 0.0
2017-Oct-16 00:00N 30°04' W 093°16'0 0.0
2017-Oct-15 23:30N 30°04' W 093°16'0 0.0
2017-Oct-15 23:00N 30°04' W 093°16'2 4.1
2017-Oct-15 22:30N 30°02' W 093°15'3 5.2
2017-Oct-15 22:00N 29°60' W 093°13'3 6.0
2017-Oct-15 21:30N 29°58' W 093°11'3 5.4
2017-Oct-15 21:00N 29°56' W 093°09'3 5.9
2017-Oct-15 20:30N 29°56' W 093°05'39 4.0
2017-Oct-15 10:51N 29°51' W 092°21'2 6.2
2017-Oct-15 10:28N 29°50' W 092°18'3 5.8
2017-Oct-15 10:00N 29°49' W 092°16'3 6.1
2017-Oct-15 09:30N 29°47' W 092°13'2 3.7
2017-Oct-15 09:00N 29°47' W 092°11'3 5.5
2017-Oct-15 08:30N 29°47' W 092°08'3 5.9
2017-Oct-15 08:00N 29°48' W 092°04'61 5.5
2017-Oct-14 21:05N 29°34' W 090°57'1 7.0
2017-Oct-14 20:59N 29°34' W 090°56'4 6.8
2017-Oct-14 20:23N 29°32' W 090°52'3 7.0
2017-Oct-14 20:00N 29°32' W 090°49'3 6.1
2017-Oct-14 19:30N 29°33' W 090°45'2 4.8
2017-Oct-14 19:00N 29°34' W 090°43'2 4.5
2017-Oct-14 18:30N 29°37' W 090°42'1 2.0
2017-Oct-14 18:00N 29°37' W 090°41'0 0.0
2017-Oct-14 17:30N 29°37' W 090°41'0 0.0
2017-Oct-14 17:00N 29°37' W 090°41'0 0.1
2017-Oct-14 16:30N 29°36' W 090°41'2 4.6
2017-Oct-14 16:00N 29°36' W 090°39'3 5.4
2017-Oct-14 15:30N 29°35' W 090°36'3 5.2
2017-Oct-14 15:00N 29°34' W 090°33'3 6.2
2017-Oct-14 14:30N 29°34' W 090°30'30 4.8
2017-Oct-14 08:11N 29°51' W 090°01'1 5.1
2017-Oct-14 07:59N 29°52' W 090°01'2 4.2
2017-Oct-14 07:30N 29°54' W 089°59'  
Track history (hours):
 
Tides and Currents Weather Stations Pressure Air Temp Water Temp Dewpoint Dewpoint Depression Visibility Wind Speed Wind Dir Waves Ship Positions

Lightning

Owner: Harley Marine Services, Inc, Seattle, WA. More information available from US FCC via Universal Licensing System and Coast Guard Vessel Documentation Center.

Last reported at 2017-Oct-20 15:27 UTC. Time now 2017-Oct-20 16:22 UTC.
Position N 29°56' W 093°01'.

Length 18 m; draft 3.5 m.

Type: Towing. MMSI: 367544970.

Date/timePositionNaut miles runAvg speedWind from/ knotsBaromVisibWave heightAir tempDewpointWater temp
2017-Oct-20 15:27N 29°56' W 093°01'2 5.3
2017-Oct-20 15:00N 29°56' W 093°03'3 5.2
2017-Oct-20 14:30N 29°56' W 093°06'5 4.7
2017-Oct-20 13:30N 29°58' W 093°11'3 5.2
2017-Oct-20 13:00N 29°60' W 093°13'2 4.4
2017-Oct-20 12:30N 30°02' W 093°15'2 3.1
2017-Oct-20 12:00N 30°03' W 093°16'1 2.9
2017-Oct-20 11:30N 30°04' W 093°16'1 2.8
2017-Oct-20 11:00N 30°05' W 093°18'0 0.5
2017-Oct-20 10:30N 30°05' W 093°18'0 0.4
2017-Oct-20 10:00N 30°06' W 093°18'0 0.8
2017-Oct-20 09:30N 30°06' W 093°18'0 0.0
2017-Oct-20 09:00N 30°06' W 093°18'0 0.0
2017-Oct-20 08:30N 30°06' W 093°18'0 0.0
2017-Oct-20 08:00N 30°06' W 093°18'0 0.0
2017-Oct-20 07:30N 30°06' W 093°18'0 0.0
2017-Oct-20 07:00N 30°06' W 093°18'0 0.0
2017-Oct-20 06:30N 30°06' W 093°18'0 0.5
2017-Oct-20 06:00N 30°06' W 093°18'2 3.1
2017-Oct-20 05:30N 30°05' W 093°20'2 3.9
2017-Oct-20 05:00N 30°04' W 093°21'2 3.3
2017-Oct-20 04:30N 30°04' W 093°23'0 0.5
2017-Oct-20 04:00N 30°04' W 093°24'0 0.0
2017-Oct-20 03:30N 30°04' W 093°24'0 0.1
2017-Oct-20 03:00N 30°04' W 093°24'0 0.0
2017-Oct-20 02:30N 30°04' W 093°24'0 0.4
2017-Oct-20 02:00N 30°04' W 093°24'0 0.2
2017-Oct-20 01:30N 30°04' W 093°24'1 1.1
2017-Oct-20 01:00N 30°04' W 093°25'2 3.8
2017-Oct-20 00:30N 30°04' W 093°27'3 5.2
2017-Oct-20 00:00N 30°04' W 093°30'3 5.7
2017-Oct-19 23:30N 30°04' W 093°33'2 4.7
2017-Oct-19 23:00N 30°04' W 093°36'2 4.8
2017-Oct-19 22:30N 30°04' W 093°39'72 4.7
2017-Oct-19 07:06N 29°30' W 094°52'2 7.3
2017-Oct-19 06:52N 29°32' W 094°54'3 7.1
2017-Oct-19 06:30N 29°34' W 094°55'4 7.2
2017-Oct-19 06:00N 29°37' W 094°57'4 7.6
2017-Oct-19 05:30N 29°40' W 094°59'4 6.5
2017-Oct-19 04:52N 29°44' W 095°02'3 6.6
2017-Oct-19 04:25N 29°46' W 095°04'2 3.8
2017-Oct-19 03:58N 29°45' W 095°06'0 0.0
2017-Oct-19 03:30N 29°45' W 095°06'0 0.0
2017-Oct-19 03:00N 29°45' W 095°06'0 0.1
2017-Oct-19 02:28N 29°45' W 095°06'0 0.0
2017-Oct-18 12:57N 29°45' W 095°06'0 0.0
2017-Oct-18 12:30N 29°45' W 095°06'0 0.0
2017-Oct-18 12:00N 29°45' W 095°06'0 0.0
2017-Oct-18 11:30N 29°45' W 095°06'2 3.3
2017-Oct-18 10:59N 29°46' W 095°04'3 6.7
2017-Oct-18 10:30N 29°44' W 095°01'2 3.1
2017-Oct-18 10:00N 29°42' W 095°03'0 0.4
2017-Oct-18 09:24N 29°42' W 095°03'0 0.0
2017-Oct-18 08:59N 29°42' W 095°03'0 0.0
2017-Oct-18 08:30N 29°42' W 095°03'0 0.0
2017-Oct-18 08:00N 29°42' W 095°03'0 0.0
2017-Oct-18 07:30N 29°42' W 095°03'0 0.0
2017-Oct-18 06:55N 29°42' W 095°03'0 0.0
2017-Oct-18 06:25N 29°42' W 095°03'0 0.0
2017-Oct-18 06:00N 29°42' W 095°03'0 0.0
2017-Oct-18 05:29N 29°42' W 095°03'0 0.0
2017-Oct-18 04:57N 29°42' W 095°03'0 0.0
2017-Oct-18 04:23N 29°42' W 095°03'0 0.0
2017-Oct-18 04:00N 29°42' W 095°03'0 0.0
2017-Oct-18 02:40N 29°42' W 095°03'0 0.0
2017-Oct-18 02:29N 29°42' W 095°03'0 0.0
2017-Oct-18 01:55N 29°42' W 095°03'0 0.0
2017-Oct-18 01:21N 29°42' W 095°03'0 0.0
2017-Oct-18 00:59N 29°42' W 095°03'0 0.0
2017-Oct-18 00:24N 29°42' W 095°03'0 0.0
2017-Oct-17 23:51N 29°42' W 095°03'0 0.0
2017-Oct-17 23:25N 29°42' W 095°03'0 0.0
2017-Oct-17 23:00N 29°42' W 095°03'0 0.0
2017-Oct-17 22:27N 29°42' W 095°03'0 0.0
2017-Oct-17 21:56N 29°42' W 095°03'0 0.0
2017-Oct-17 21:27N 29°42' W 095°03'0 0.0
2017-Oct-17 20:59N 29°42' W 095°03'0 0.0
2017-Oct-17 20:30N 29°42' W 095°03'1 2.9
2017-Oct-17 20:00N 29°42' W 095°01'3 5.6
2017-Oct-17 19:30N 29°41' W 094°59'3 7.0
2017-Oct-17 19:00N 29°37' W 094°57'3 6.7
2017-Oct-17 18:30N 29°34' W 094°55'4 7.1
2017-Oct-17 18:00N 29°31' W 094°53'68 4.9
2017-Oct-17 04:18N 30°03' W 093°44'2 6.4
2017-Oct-17 03:56N 30°04' W 093°42'3 6.8
2017-Oct-17 03:29N 30°04' W 093°38'3 6.2
2017-Oct-17 03:00N 30°04' W 093°35'3 6.1
2017-Oct-17 02:30N 30°04' W 093°31'3 6.1
2017-Oct-17 02:00N 30°04' W 093°27'3 6.1
2017-Oct-17 01:30N 30°04' W 093°24'3 5.7
2017-Oct-17 01:00N 30°04' W 093°21'3 5.7
2017-Oct-17 00:30N 30°06' W 093°18'2 3.1
2017-Oct-17 00:00N 30°05' W 093°17'1 1.0
2017-Oct-16 23:30N 30°05' W 093°17'0 0.0
2017-Oct-16 23:00N 30°05' W 093°17'0 0.1
2017-Oct-16 22:30N 30°05' W 093°17'0 0.2
2017-Oct-16 22:00N 30°05' W 093°17'0 0.0
2017-Oct-16 21:30N 30°05' W 093°17'0 0.1
2017-Oct-16 21:00N 30°05' W 093°17'0 0.0
2017-Oct-16 20:30N 30°05' W 093°17'0 0.0
2017-Oct-16 20:00N 30°05' W 093°17'0 0.0
2017-Oct-16 19:30N 30°05' W 093°17'0 0.0
2017-Oct-16 19:00N 30°05' W 093°17'0 0.0
2017-Oct-16 18:30N 30°05' W 093°17'0 0.0
2017-Oct-16 18:00N 30°05' W 093°17'0 0.0
2017-Oct-16 17:30N 30°05' W 093°17'0 0.0
2017-Oct-16 17:00N 30°05' W 093°17'0 0.0
2017-Oct-16 16:30N 30°05' W 093°17'0 0.0
2017-Oct-16 16:00N 30°05' W 093°17'0 0.0
2017-Oct-16 15:30N 30°05' W 093°17'0 0.0
2017-Oct-16 15:00N 30°05' W 093°17'0 0.0
2017-Oct-16 14:30N 30°05' W 093°17'0 0.1
2017-Oct-16 13:30N 30°05' W 093°16'0 0.0
2017-Oct-16 13:00N 30°05' W 093°16'0 0.0
2017-Oct-16 12:30N 30°05' W 093°16'0 0.0
2017-Oct-16 12:00N 30°05' W 093°16'0 0.0
2017-Oct-16 11:30N 30°05' W 093°16'0 0.0
2017-Oct-16 11:00N 30°05' W 093°16'0 0.0
2017-Oct-16 10:30N 30°05' W 093°16'0 0.0
2017-Oct-16 10:00N 30°05' W 093°17'0 0.1
2017-Oct-16 09:30N 30°05' W 093°16'0 0.0
2017-Oct-16 09:00N 30°05' W 093°16'0 0.0
2017-Oct-16 08:30N 30°05' W 093°16'0 0.0
2017-Oct-16 08:00N 30°05' W 093°16'0 0.0
2017-Oct-16 07:30N 30°05' W 093°16'0 0.0
2017-Oct-16 07:00N 30°05' W 093°16'0 0.0
2017-Oct-16 06:30N 30°05' W 093°16'0 0.0
2017-Oct-16 06:00N 30°05' W 093°16'0 0.0
2017-Oct-16 05:30N 30°05' W 093°16'0 0.0
2017-Oct-16 05:00N 30°05' W 093°16'0 0.0
2017-Oct-16 04:30N 30°05' W 093°16'0 0.0
2017-Oct-16 04:00N 30°05' W 093°16'0 0.0
2017-Oct-16 03:31N 30°05' W 093°16'0 0.0
2017-Oct-16 03:00N 30°05' W 093°16'0 0.0
2017-Oct-16 02:30N 30°05' W 093°16'0 0.0
2017-Oct-16 02:00N 30°05' W 093°16'1 1.5
2017-Oct-16 01:30N 30°04' W 093°16'0 0.0
2017-Oct-16 01:00N 30°04' W 093°16'0 0.0
2017-Oct-16 00:30N 30°04' W 093°16'0 0.0
2017-Oct-16 00:00N 30°04' W 093°16'0 0.0
2017-Oct-15 23:30N 30°04' W 093°16'0 0.0
2017-Oct-15 23:00N 30°04' W 093°16'2 4.1
2017-Oct-15 22:30N 30°02' W 093°15'3 5.2
2017-Oct-15 22:00N 29°60' W 093°13'3 6.0
2017-Oct-15 21:30N 29°58' W 093°11'3 5.4
2017-Oct-15 21:00N 29°56' W 093°09'3 5.9
2017-Oct-15 20:30N 29°56' W 093°05'39 4.0
2017-Oct-15 10:51N 29°51' W 092°21'2 6.2
2017-Oct-15 10:28N 29°50' W 092°18'3 5.8
2017-Oct-15 10:00N 29°49' W 092°16'3 6.1
2017-Oct-15 09:30N 29°47' W 092°13'2 3.7
2017-Oct-15 09:00N 29°47' W 092°11'3 5.5
2017-Oct-15 08:30N 29°47' W 092°08'3 5.9
2017-Oct-15 08:00N 29°48' W 092°04'61 5.5
2017-Oct-14 21:05N 29°34' W 090°57'1 7.0
2017-Oct-14 20:59N 29°34' W 090°56'4 6.8
2017-Oct-14 20:23N 29°32' W 090°52'3 7.0
2017-Oct-14 20:00N 29°32' W 090°49'3 6.1
2017-Oct-14 19:30N 29°33' W 090°45'2 4.8
2017-Oct-14 19:00N 29°34' W 090°43'2 4.5
2017-Oct-14 18:30N 29°37' W 090°42'1 2.0
2017-Oct-14 18:00N 29°37' W 090°41'0 0.0
2017-Oct-14 17:30N 29°37' W 090°41'0 0.0
2017-Oct-14 17:00N 29°37' W 090°41'0 0.1
2017-Oct-14 16:30N 29°36' W 090°41'2 4.6
2017-Oct-14 16:00N 29°36' W 090°39'3 5.4
2017-Oct-14 15:30N 29°35' W 090°36'3 5.2
2017-Oct-14 15:00N 29°34' W 090°33'3 6.2
2017-Oct-14 14:30N 29°34' W 090°30'30 4.8
2017-Oct-14 08:11N 29°51' W 090°01'1 5.1
2017-Oct-14 07:59N 29°52' W 090°01'2 4.2
2017-Oct-14 07:30N 29°54' W 089°59'  

Dump ship's entire track history